sensor_id;sensor_type;location;lat;lon;timestamp;pressure;altitude;pressure_sealevel;temperature;humidity
60307;BME280;46155;52.364;6.580;2023-06-10T03:01:33;101339.03;;;17.62;72.47
60307;BME280;46155;52.364;6.580;2023-06-10T03:03:58;101351.72;;;17.69;72.89
60307;BME280;46155;52.364;6.580;2023-06-10T03:06:23;101360.75;;;17.75;72.75
60307;BME280;46155;52.364;6.580;2023-06-10T03:08:50;101359.63;;;17.68;72.80
60307;BME280;46155;52.364;6.580;2023-06-10T03:11:15;101359.13;;;17.55;73.21
60307;BME280;46155;52.364;6.580;2023-06-10T03:13:40;101353.56;;;17.49;73.96
60307;BME280;46155;52.364;6.580;2023-06-10T03:16:06;101364.84;;;17.44;74.35
60307;BME280;46155;52.364;6.580;2023-06-10T03:18:31;101364.75;;;17.42;74.75
60307;BME280;46155;52.364;6.580;2023-06-10T03:20:57;101368.31;;;17.43;74.47
60307;BME280;46155;52.364;6.580;2023-06-10T03:23:23;101360.00;;;17.35;75.10
60307;BME280;46155;52.364;6.580;2023-06-10T03:25:48;101344.63;;;17.47;74.88
60307;BME280;46155;52.364;6.580;2023-06-10T03:28:14;101367.88;;;17.97;72.92
60307;BME280;46155;52.364;6.580;2023-06-10T03:30:39;101367.34;;;17.84;72.62
60307;BME280;46155;52.364;6.580;2023-06-10T03:33:04;101361.28;;;17.66;73.49
60307;BME280;46155;52.364;6.580;2023-06-10T03:35:30;101368.75;;;17.53;74.42
60307;BME280;46155;52.364;6.580;2023-06-10T03:37:57;101348.50;;;17.55;80.14
60307;BME280;46155;52.364;6.580;2023-06-10T03:40:22;101368.06;;;17.80;74.29
60307;BME280;46155;52.364;6.580;2023-06-10T03:42:48;101366.38;;;17.60;74.32
60307;BME280;46155;52.364;6.580;2023-06-10T03:45:13;101359.91;;;17.32;75.22
60307;BME280;46155;52.364;6.580;2023-06-10T03:47:38;101362.41;;;17.29;75.73
60307;BME280;46155;52.364;6.580;2023-06-10T03:50:06;101367.91;;;17.12;76.61
60307;BME280;46155;52.364;6.580;2023-06-10T03:52:33;101367.66;;;17.06;77.29
60307;BME280;46155;52.364;6.580;2023-06-10T03:54:58;101380.66;;;17.00;77.86
60307;BME280;46155;52.364;6.580;2023-06-10T03:57:24;101380.66;;;17.00;77.86
60307;BME280;46155;52.364;6.580;2023-06-10T03:59:49;101371.59;;;16.95;78.09
60307;BME280;46155;52.364;6.580;2023-06-10T04:02:15;101384.91;;;16.96;78.46
60307;BME280;46155;52.364;6.580;2023-06-10T04:04:41;101377.88;;;16.97;78.33
60307;BME280;46155;52.364;6.580;2023-06-10T04:07:06;101383.03;;;16.94;78.63
60307;BME280;46155;52.364;6.580;2023-06-10T04:09:34;101376.75;;;16.92;78.75
60307;BME280;46155;52.364;6.580;2023-06-10T04:11:59;101378.59;;;16.93;78.83
60307;BME280;46155;52.364;6.580;2023-06-10T04:14:25;101387.56;;;16.96;78.48
60307;BME280;46155;52.364;6.580;2023-06-10T04:16:50;101383.31;;;17.00;78.59
60307;BME280;46155;52.364;6.580;2023-06-10T04:19:16;101386.38;;;16.90;79.14
60307;BME280;46155;52.364;6.580;2023-06-10T04:21:42;101387.78;;;16.81;79.69
60307;BME280;46155;52.364;6.580;2023-06-10T04:24:07;101378.94;;;16.82;79.71
60307;BME280;46155;52.364;6.580;2023-06-10T04:26:32;101388.84;;;16.86;79.78
60307;BME280;46155;52.364;6.580;2023-06-10T04:28:58;101379.00;;;16.84;80.04
60307;BME280;46155;52.364;6.580;2023-06-10T04:31:24;101390.84;;;16.91;79.67
60307;BME280;46155;52.364;6.580;2023-06-10T04:33:49;101392.81;;;16.95;79.53
60307;BME280;46155;52.364;6.580;2023-06-10T04:36:14;101389.19;;;16.93;79.87
60307;BME280;46155;52.364;6.580;2023-06-10T04:38:40;101401.94;;;17.01;79.45
60307;BME280;46155;52.364;6.580;2023-06-10T04:41:05;101393.78;;;16.97;79.71
60307;BME280;46155;52.364;6.580;2023-06-10T04:43:31;101394.88;;;17.02;79.71
60307;BME280;46155;52.364;6.580;2023-06-10T04:45:56;101395.72;;;17.01;79.50
60307;BME280;46155;52.364;6.580;2023-06-10T04:48:21;101399.34;;;17.03;79.65
60307;BME280;46155;52.364;6.580;2023-06-10T04:50:48;101399.22;;;17.00;79.44
60307;BME280;46155;52.364;6.580;2023-06-10T04:53:14;101389.75;;;17.07;79.34
60307;BME280;46155;52.364;6.580;2023-06-10T04:55:40;101401.69;;;17.16;79.13
60307;BME280;46155;52.364;6.580;2023-06-10T04:58:05;101382.44;;;17.01;79.01
60307;BME280;46155;52.364;6.580;2023-06-10T05:00:31;101389.75;;;17.07;78.62
60307;BME280;46155;52.364;6.580;2023-06-10T05:02:56;101398.84;;;17.12;79.04
60307;BME280;46155;52.364;6.580;2023-06-10T05:05:21;101399.75;;;17.12;78.61
60307;BME280;46155;52.364;6.580;2023-06-10T05:07:47;101401.28;;;17.27;78.59
60307;BME280;46155;52.364;6.580;2023-06-10T05:10:13;101383.41;;;17.23;78.02
60307;BME280;46155;52.364;6.580;2023-06-10T05:12:38;101398.22;;;17.38;77.94
60307;BME280;46155;52.364;6.580;2023-06-10T05:15:06;101400.81;;;17.37;77.82
60307;BME280;46155;52.364;6.580;2023-06-10T05:17:31;101389.44;;;17.40;77.67
60307;BME280;46155;52.364;6.580;2023-06-10T05:19:57;101402.69;;;17.40;77.54
60307;BME280;46155;52.364;6.580;2023-06-10T05:22:22;101399.88;;;17.36;76.63
60307;BME280;46155;52.364;6.580;2023-06-10T05:24:50;101403.84;;;17.46;77.09
60307;BME280;46155;52.364;6.580;2023-06-10T05:27:16;101390.63;;;17.48;76.52
60307;BME280;46155;52.364;6.580;2023-06-10T05:29:41;101400.88;;;17.60;76.74
60307;BME280;46155;52.364;6.580;2023-06-10T05:32:07;101404.75;;;17.68;75.62
60307;BME280;46155;52.364;6.580;2023-06-10T05:34:33;101386.28;;;17.71;76.14
60307;BME280;46155;52.364;6.580;2023-06-10T05:36:58;101404.88;;;17.71;75.36
60307;BME280;46155;52.364;6.580;2023-06-10T05:39:24;101407.00;;;17.80;75.73
60307;BME280;46155;52.364;6.580;2023-06-10T05:41:49;101400.19;;;17.86;75.08
60307;BME280;46155;52.364;6.580;2023-06-10T05:44:14;101408.28;;;17.89;75.24
60307;BME280;46155;52.364;6.580;2023-06-10T05:46:40;101407.59;;;17.94;74.50
60307;BME280;46155;52.364;6.580;2023-06-10T05:49:05;101411.22;;;17.96;74.89
60307;BME280;46155;52.364;6.580;2023-06-10T05:51:31;101416.66;;;17.99;74.18
60307;BME280;46155;52.364;6.580;2023-06-10T05:53:56;101414.75;;;17.95;74.30
60307;BME280;46155;52.364;6.580;2023-06-10T05:56:21;101410.88;;;18.09;73.66
60307;BME280;46155;52.364;6.580;2023-06-10T05:58:48;101412.44;;;18.27;72.10
60307;BME280;46155;52.364;6.580;2023-06-10T06:01:13;101402.63;;;18.26;72.07
60307;BME280;46155;52.364;6.580;2023-06-10T06:03:38;101390.22;;;18.24;71.87
60307;BME280;46155;52.364;6.580;2023-06-10T06:06:04;101406.09;;;18.46;71.98
60307;BME280;46155;52.364;6.580;2023-06-10T06:08:29;101408.69;;;18.68;71.61
60307;BME280;46155;52.364;6.580;2023-06-10T06:10:55;101412.66;;;18.80;71.04
60307;BME280;46155;52.364;6.580;2023-06-10T06:13:20;101396.47;;;18.73;70.74
60307;BME280;46155;52.364;6.580;2023-06-10T06:15:45;101412.16;;;18.88;70.11
60307;BME280;46155;52.364;6.580;2023-06-10T06:18:11;101425.91;;;19.02;70.25
60307;BME280;46155;52.364;6.580;2023-06-10T06:20:36;101419.25;;;18.89;69.70
60307;BME280;46155;52.364;6.580;2023-06-10T06:23:01;101416.78;;;18.94;69.00
60307;BME280;46155;52.364;6.580;2023-06-10T06:25:27;101422.06;;;19.18;68.79
60307;BME280;46155;52.364;6.580;2023-06-10T06:27:52;101424.84;;;19.21;67.33
60307;BME280;46155;52.364;6.580;2023-06-10T06:30:17;101412.16;;;19.40;66.91
60307;BME280;46155;52.364;6.580;2023-06-10T06:32:43;101411.28;;;19.39;66.84
60307;BME280;46155;52.364;6.580;2023-06-10T06:35:08;101426.66;;;19.48;66.06
60307;BME280;46155;52.364;6.580;2023-06-10T06:37:34;101404.28;;;19.43;66.14
60307;BME280;46155;52.364;6.580;2023-06-10T06:40:00;101418.97;;;19.57;66.29
60307;BME280;46155;52.364;6.580;2023-06-10T06:42:25;101417.38;;;19.63;65.15
60307;BME280;46155;52.364;6.580;2023-06-10T06:44:50;101402.59;;;19.72;65.16
60307;BME280;46155;52.364;6.580;2023-06-10T06:47:16;101409.34;;;19.88;64.64
60307;BME280;46155;52.364;6.580;2023-06-10T06:49:45;101421.03;;;19.92;64.05
60307;BME280;46155;52.364;6.580;2023-06-10T06:52:10;101416.78;;;19.99;64.04
60307;BME280;46155;52.364;6.580;2023-06-10T06:54:36;101418.16;;;20.13;62.75
60307;BME280;46155;52.364;6.580;2023-06-10T06:57:01;101414.03;;;19.95;63.01
60307;BME280;46155;52.364;6.580;2023-06-10T06:59:27;101414.25;;;20.02;62.18
60307;BME280;46155;52.364;6.580;2023-06-10T07:01:52;101423.34;;;20.10;62.43
60307;BME280;46155;52.364;6.580;2023-06-10T07:04:19;101424.78;;;20.26;61.43
60307;BME280;46155;52.364;6.580;2023-06-10T07:06:46;101421.22;;;20.27;60.95
60307;BME280;46155;52.364;6.580;2023-06-10T07:09:12;101428.84;;;20.43;61.22
60307;BME280;46155;52.364;6.580;2023-06-10T07:11:37;101432.91;;;20.61;60.58
60307;BME280;46155;52.364;6.580;2023-06-10T07:14:02;101436.78;;;20.71;59.74
60307;BME280;46155;52.364;6.580;2023-06-10T07:16:28;101435.63;;;20.62;59.95
60307;BME280;46155;52.364;6.580;2023-06-10T07:18:53;101422.53;;;20.69;62.52
60307;BME280;46155;52.364;6.580;2023-06-10T07:21:19;101429.34;;;20.60;60.07
60307;BME280;46155;52.364;6.580;2023-06-10T07:23:44;101421.78;;;20.74;60.19
60307;BME280;46155;52.364;6.580;2023-06-10T07:26:10;101426.59;;;20.88;59.21
60307;BME280;46155;52.364;6.580;2023-06-10T07:28:40;101431.16;;;20.92;60.13
60307;BME280;46155;52.364;6.580;2023-06-10T07:31:07;101441.72;;;21.19;59.44
60307;BME280;46155;52.364;6.580;2023-06-10T07:33:33;101437.66;;;21.33;60.20
60307;BME280;46155;52.364;6.580;2023-06-10T07:35:58;101445.22;;;21.50;59.24
60307;BME280;46155;52.364;6.580;2023-06-10T07:38:24;101437.09;;;21.45;58.63
60307;BME280;46155;52.364;6.580;2023-06-10T07:40:50;101444.97;;;21.41;56.41
60307;BME280;46155;52.364;6.580;2023-06-10T07:43:15;101439.25;;;21.60;57.31
60307;BME280;46155;52.364;6.580;2023-06-10T07:45:41;101448.28;;;21.64;57.14
60307;BME280;46155;52.364;6.580;2023-06-10T07:48:07;101438.03;;;21.49;57.47
60307;BME280;46155;52.364;6.580;2023-06-10T07:50:33;101442.84;;;21.61;57.99
60307;BME280;46155;52.364;6.580;2023-06-10T07:52:58;101443.53;;;21.52;56.69
60307;BME280;46155;52.364;6.580;2023-06-10T07:55:23;101450.41;;;21.44;57.24
60307;BME280;46155;52.364;6.580;2023-06-10T07:57:51;101452.22;;;21.45;56.39
60307;BME280;46155;52.364;6.580;2023-06-10T08:00:16;101449.03;;;21.58;57.66
60307;BME280;46155;52.364;6.580;2023-06-10T08:02:42;101450.00;;;21.98;57.25
60307;BME280;46155;52.364;6.580;2023-06-10T08:05:07;101455.78;;;22.17;55.04
60307;BME280;46155;52.364;6.580;2023-06-10T08:07:33;101447.25;;;21.95;55.69
60307;BME280;46155;52.364;6.580;2023-06-10T08:10:00;101442.63;;;21.88;54.59
60307;BME280;46155;52.364;6.580;2023-06-10T08:12:25;101448.25;;;21.99;56.11
60307;BME280;46155;52.364;6.580;2023-06-10T08:14:51;101439.75;;;22.17;54.70
60307;BME280;46155;52.364;6.580;2023-06-10T08:17:16;101448.31;;;22.39;53.87
60307;BME280;46155;52.364;6.580;2023-06-10T08:19:41;101442.22;;;22.46;53.32
60307;BME280;46155;52.364;6.580;2023-06-10T08:22:06;101460.03;;;22.86;53.35
60307;BME280;46155;52.364;6.580;2023-06-10T08:24:32;101462.75;;;22.88;52.16
60307;BME280;46155;52.364;6.580;2023-06-10T08:26:58;101461.44;;;22.69;52.64
60307;BME280;46155;52.364;6.580;2023-06-10T08:29:23;101460.56;;;22.68;53.04
60307;BME280;46155;52.364;6.580;2023-06-10T08:31:49;101444.22;;;22.56;53.38
60307;BME280;46155;52.364;6.580;2023-06-10T08:34:14;101453.59;;;22.77;53.10
60307;BME280;46155;52.364;6.580;2023-06-10T08:36:40;101449.75;;;23.07;53.35
60307;BME280;46155;52.364;6.580;2023-06-10T08:39:05;101455.56;;;22.85;52.66
60307;BME280;46155;52.364;6.580;2023-06-10T08:41:34;101452.13;;;22.91;52.82
60307;BME280;46155;52.364;6.580;2023-06-10T08:44:10;101445.25;;;23.06;52.04
60307;BME280;46155;52.364;6.580;2023-06-10T08:46:38;101455.09;;;23.07;51.21
60307;BME280;46155;52.364;6.580;2023-06-10T08:49:06;101444.53;;;23.13;51.14
60307;BME280;46155;52.364;6.580;2023-06-10T08:51:35;101448.06;;;23.12;51.50
60307;BME280;46155;52.364;6.580;2023-06-10T08:54:05;101452.06;;;23.34;51.19
60307;BME280;46155;52.364;6.580;2023-06-10T08:56:39;101443.09;;;23.32;50.94
60307;BME280;46155;52.364;6.580;2023-06-10T08:59:05;101445.59;;;23.21;50.65
60307;BME280;46155;52.364;6.580;2023-06-10T09:01:30;101449.06;;;23.17;51.40
60307;BME280;46155;52.364;6.580;2023-06-10T09:03:57;101444.34;;;23.51;51.89
60307;BME280;46155;52.364;6.580;2023-06-10T09:06:24;101446.88;;;23.43;49.53
60307;BME280;46155;52.364;6.580;2023-06-10T09:08:50;101438.81;;;23.42;49.96
60307;BME280;46155;52.364;6.580;2023-06-10T09:11:15;101440.22;;;23.71;51.09
60307;BME280;46155;52.364;6.580;2023-06-10T09:13:41;101441.69;;;24.04;49.14
60307;BME280;46155;52.364;6.580;2023-06-10T09:16:06;101437.81;;;23.87;47.94
60307;BME280;46155;52.364;6.580;2023-06-10T09:18:31;101447.97;;;24.08;48.44
60307;BME280;46155;52.364;6.580;2023-06-10T09:20:57;101434.97;;;24.34;47.37
60307;BME280;46155;52.364;6.580;2023-06-10T09:23:22;101440.19;;;24.25;46.37
60307;BME280;46155;52.364;6.580;2023-06-10T09:25:56;101441.97;;;24.23;47.58
60307;BME280;46155;52.364;6.580;2023-06-10T09:28:21;101440.59;;;24.53;48.75
60307;BME280;46155;52.364;6.580;2023-06-10T09:30:47;101451.03;;;24.31;45.72
60307;BME280;46155;52.364;6.580;2023-06-10T09:33:13;101434.13;;;24.37;45.93
60307;BME280;46155;52.364;6.580;2023-06-10T09:35:49;101443.09;;;24.42;46.23
60307;BME280;46155;52.364;6.580;2023-06-10T09:38:21;101430.75;;;24.55;46.28
60307;BME280;46155;52.364;6.580;2023-06-10T09:40:51;101435.25;;;24.56;46.07
60307;BME280;46155;52.364;6.580;2023-06-10T09:43:17;101435.72;;;24.90;46.98
60307;BME280;46155;52.364;6.580;2023-06-10T09:45:43;101437.03;;;25.29;43.99
60307;BME280;46155;52.364;6.580;2023-06-10T09:48:08;101429.03;;;25.32;43.88
60307;BME280;46155;52.364;6.580;2023-06-10T09:50:34;101432.72;;;25.42;44.75
60307;BME280;46155;52.364;6.580;2023-06-10T09:53:02;101428.16;;;25.35;43.44
60307;BME280;46155;52.364;6.580;2023-06-10T09:55:33;101430.66;;;25.18;42.35
60307;BME280;46155;52.364;6.580;2023-06-10T09:57:58;101430.88;;;25.36;42.80
60307;BME280;46155;52.364;6.580;2023-06-10T10:00:24;101426.53;;;25.54;43.23
60307;BME280;46155;52.364;6.580;2023-06-10T10:02:52;101434.59;;;25.51;41.77
60307;BME280;46155;52.364;6.580;2023-06-10T10:05:20;101429.19;;;25.48;42.87
60307;BME280;46155;52.364;6.580;2023-06-10T10:07:46;101428.22;;;25.42;42.87
60307;BME280;46155;52.364;6.580;2023-06-10T10:10:14;101428.19;;;25.36;43.56
60307;BME280;46155;52.364;6.580;2023-06-10T10:12:40;101424.88;;;25.71;43.76
60307;BME280;46155;52.364;6.580;2023-06-10T10:15:10;101426.63;;;25.63;43.17
60307;BME280;46155;52.364;6.580;2023-06-10T10:17:49;101422.88;;;25.47;41.55
60307;BME280;46155;52.364;6.580;2023-06-10T10:20:20;101426.50;;;25.48;41.76
60307;BME280;46155;52.364;6.580;2023-06-10T10:22:49;101425.69;;;25.59;44.05
60307;BME280;46155;52.364;6.580;2023-06-10T10:25:23;101419.47;;;25.67;42.45
60307;BME280;46155;52.364;6.580;2023-06-10T10:27:59;101410.53;;;25.69;42.29
60307;BME280;46155;52.364;6.580;2023-06-10T10:30:28;101417.75;;;25.73;41.72
60307;BME280;46155;52.364;6.580;2023-06-10T10:32:58;101419.44;;;25.60;41.34
60307;BME280;46155;52.364;6.580;2023-06-10T10:35:30;101419.44;;;25.62;41.09
60307;BME280;46155;52.364;6.580;2023-06-10T10:37:55;101411.38;;;25.62;41.64
60307;BME280;46155;52.364;6.580;2023-06-10T10:40:22;101409.78;;;25.86;42.86
60307;BME280;46155;52.364;6.580;2023-06-10T10:42:49;101408.31;;;26.31;41.14
60307;BME280;46155;52.364;6.580;2023-06-10T10:45:14;101417.28;;;26.33;39.38
60307;BME280;46155;52.364;6.580;2023-06-10T10:47:41;101417.16;;;26.15;40.99
60307;BME280;46155;52.364;6.580;2023-06-10T10:50:15;101408.00;;;25.89;40.78
60307;BME280;46155;52.364;6.580;2023-06-10T10:55:17;101401.06;;;26.24;39.18
60307;BME280;46155;52.364;6.580;2023-06-10T10:57:43;101405.66;;;26.45;39.78
60307;BME280;46155;52.364;6.580;2023-06-10T11:00:09;101402.00;;;26.27;40.26
60307;BME280;46155;52.364;6.580;2023-06-10T11:02:41;101395.56;;;26.05;39.67
60307;BME280;46155;52.364;6.580;2023-06-10T11:05:09;101397.47;;;26.19;39.94
60307;BME280;46155;52.364;6.580;2023-06-10T11:07:35;101392.16;;;26.34;39.65
60307;BME280;46155;52.364;6.580;2023-06-10T11:10:08;101400.31;;;26.50;39.52
60307;BME280;46155;52.364;6.580;2023-06-10T11:15:12;101392.19;;;26.48;39.39
60307;BME280;46155;52.364;6.580;2023-06-10T11:23:07;101391.38;;;26.66;36.74
60307;BME280;46155;52.364;6.580;2023-06-10T11:25:42;101394.16;;;26.82;35.59
60307;BME280;46155;52.364;6.580;2023-06-10T11:28:27;101379.84;;;27.00;34.58
60307;BME280;46155;52.364;6.580;2023-06-10T11:30:57;101392.34;;;26.71;33.97
60307;BME280;46155;52.364;6.580;2023-06-10T11:33:23;101382.50;;;26.79;34.08
60307;BME280;46155;52.364;6.580;2023-06-10T11:35:50;101392.34;;;26.77;34.87
60307;BME280;46155;52.364;6.580;2023-06-10T11:38:15;101389.72;;;26.90;34.34
60307;BME280;46155;52.364;6.580;2023-06-10T11:40:47;101391.53;;;26.97;32.61
60307;BME280;46155;52.364;6.580;2023-06-10T11:43:13;101373.56;;;27.14;35.70
60307;BME280;46155;52.364;6.580;2023-06-10T11:45:41;101377.16;;;27.09;34.15
60307;BME280;46155;52.364;6.580;2023-06-10T11:48:09;101389.72;;;26.97;34.55
60307;BME280;46155;52.364;6.580;2023-06-10T11:50:34;101383.47;;;27.09;34.06
60307;BME280;46155;52.364;6.580;2023-06-10T11:52:59;101384.38;;;27.21;33.64
60307;BME280;46155;52.364;6.580;2023-06-10T11:55:39;101378.09;;;27.25;33.35
60307;BME280;46155;52.364;6.580;2023-06-10T11:58:04;101375.44;;;27.45;31.59
60307;BME280;46155;52.364;6.580;2023-06-10T12:00:30;101383.53;;;27.65;30.74
60307;BME280;46155;52.364;6.580;2023-06-10T12:02:57;101386.19;;;27.93;30.32
60307;BME280;46155;52.364;6.580;2023-06-10T12:05:23;101379.84;;;28.14;28.28
60307;BME280;46155;52.364;6.580;2023-06-10T12:07:48;101378.03;;;28.21;28.32
60307;BME280;46155;52.364;6.580;2023-06-10T12:10:13;101385.28;;;27.91;29.56
60307;BME280;46155;52.364;6.580;2023-06-10T12:12:39;101370.94;;;27.61;31.12
60307;BME280;46155;52.364;6.580;2023-06-10T12:15:06;101379.91;;;27.44;28.79
60307;BME280;46155;52.364;6.580;2023-06-10T12:19:58;101378.09;;;27.23;25.42
60307;BME280;46155;52.364;6.580;2023-06-10T12:22:25;101370.88;;;27.33;26.38
60307;BME280;46155;52.364;6.580;2023-06-10T12:27:24;101352.97;;;27.51;29.22
60307;BME280;46155;52.364;6.580;2023-06-10T12:29:53;101357.44;;;27.78;29.45
60307;BME280;46155;52.364;6.580;2023-06-10T12:32:22;101361.91;;;27.74;27.98
60307;BME280;46155;52.364;6.580;2023-06-10T12:35:02;101353.81;;;27.74;27.64
60307;BME280;46155;52.364;6.580;2023-06-10T12:37:29;101358.34;;;27.54;26.80
60307;BME280;46155;52.364;6.580;2023-06-10T12:39:55;101367.34;;;27.62;27.38
60307;BME280;46155;52.364;6.580;2023-06-10T12:42:22;101360.16;;;27.70;27.12
60307;BME280;46155;52.364;6.580;2023-06-10T12:44:53;101359.19;;;27.88;27.36
60307;BME280;46155;52.364;6.580;2023-06-10T12:47:19;101348.41;;;27.83;24.52
60307;BME280;46155;52.364;6.580;2023-06-10T12:49:44;101358.31;;;27.88;24.79
60307;BME280;46155;52.364;6.580;2023-06-10T12:52:09;101354.69;;;28.01;25.28
60307;BME280;46155;52.364;6.580;2023-06-10T12:54:35;101356.50;;;28.05;24.97
60307;BME280;46155;52.364;6.580;2023-06-10T12:57:00;101353.78;;;28.11;26.26
60307;BME280;46155;52.364;6.580;2023-06-10T12:59:26;101350.19;;;28.17;25.44
60307;BME280;46155;52.364;6.580;2023-06-10T13:01:53;101348.38;;;28.17;25.74
60307;BME280;46155;52.364;6.580;2023-06-10T13:04:19;101352.91;;;27.88;26.70
60307;BME280;46155;52.364;6.580;2023-06-10T13:06:45;101347.53;;;27.75;27.59
60307;BME280;46155;52.364;6.580;2023-06-10T13:09:12;101344.84;;;27.72;28.92
60307;BME280;46155;52.364;6.580;2023-06-10T13:11:37;101333.16;;;27.76;29.02
60307;BME280;46155;52.364;6.580;2023-06-10T13:14:04;101352.03;;;27.64;28.50
60307;BME280;46155;52.364;6.580;2023-06-10T13:16:30;101334.03;;;27.80;29.57
60307;BME280;46155;52.364;6.580;2023-06-10T13:18:56;101333.16;;;27.76;27.88
60307;BME280;46155;52.364;6.580;2023-06-10T13:21:21;101335.84;;;27.67;28.91
60307;BME280;46155;52.364;6.580;2023-06-10T13:23:46;101333.19;;;27.70;29.64
60307;BME280;46155;52.364;6.580;2023-06-10T13:26:16;101327.75;;;27.67;30.80
60307;BME280;46155;52.364;6.580;2023-06-10T13:28:44;101332.25;;;27.80;30.78
60307;BME280;46155;52.364;6.580;2023-06-10T13:31:09;101330.44;;;27.87;29.99
60307;BME280;46155;52.364;6.580;2023-06-10T13:33:35;101325.00;;;27.98;30.09
60307;BME280;46155;52.364;6.580;2023-06-10T13:36:00;101325.00;;;28.03;29.69
60307;BME280;46155;52.364;6.580;2023-06-10T13:38:25;101317.84;;;27.85;29.57
60307;BME280;46155;52.364;6.580;2023-06-10T13:40:51;101308.88;;;27.67;29.75
60307;BME280;46155;52.364;6.580;2023-06-10T13:43:16;101314.28;;;27.73;29.26
60307;BME280;46155;52.364;6.580;2023-06-10T13:45:42;101313.38;;;27.79;29.11
60307;BME280;46155;52.364;6.580;2023-06-10T13:48:07;101308.84;;;27.90;29.12
60307;BME280;46155;52.364;6.580;2023-06-10T13:50:32;101306.16;;;27.79;29.15
60307;BME280;46155;52.364;6.580;2023-06-10T13:52:58;101300.75;;;27.86;28.53
60307;BME280;46155;52.364;6.580;2023-06-10T13:55:23;101302.53;;;27.87;29.00
60307;BME280;46155;52.364;6.580;2023-06-10T13:57:49;101302.53;;;27.93;29.68
60307;BME280;46155;52.364;6.580;2023-06-10T14:00:15;101311.53;;;27.86;30.12
60307;BME280;46155;52.364;6.580;2023-06-10T14:02:41;101304.38;;;27.85;29.89
60307;BME280;46155;52.364;6.580;2023-06-10T14:05:07;101303.44;;;27.86;29.89
60307;BME280;46155;52.364;6.580;2023-06-10T14:07:33;101301.66;;;28.02;30.14
60307;BME280;46155;52.364;6.580;2023-06-10T14:09:58;101304.31;;;28.09;29.93
60307;BME280;46155;52.364;6.580;2023-06-10T14:12:24;101306.97;;;28.20;29.69
60307;BME280;46155;52.364;6.580;2023-06-10T14:14:50;101303.38;;;28.21;28.88
60307;BME280;46155;52.364;6.580;2023-06-10T14:17:15;101307.91;;;28.11;28.79
60307;BME280;46155;52.364;6.580;2023-06-10T14:19:40;101297.06;;;28.17;29.54
60307;BME280;46155;52.364;6.580;2023-06-10T14:22:05;101304.22;;;28.28;29.33
60307;BME280;46155;52.364;6.580;2023-06-10T14:24:32;101307.84;;;28.24;28.50
60307;BME280;46155;52.364;6.580;2023-06-10T14:26:57;101302.50;;;28.08;29.03
60307;BME280;46155;52.364;6.580;2023-06-10T14:29:23;101304.31;;;28.09;28.40
60307;BME280;46155;52.364;6.580;2023-06-10T14:31:48;101306.13;;;28.01;29.36
60307;BME280;46155;52.364;6.580;2023-06-10T14:34:14;101302.56;;;27.99;29.15
60307;BME280;46155;52.364;6.580;2023-06-10T14:36:39;101302.50;;;28.13;30.32
60307;BME280;46155;52.364;6.580;2023-06-10T14:39:05;101301.66;;;27.98;29.63
60307;BME280;46155;52.364;6.580;2023-06-10T14:41:31;101293.59;;;27.81;28.92
60307;BME280;46155;52.364;6.580;2023-06-10T14:43:56;101297.19;;;27.80;29.43
60307;BME280;46155;52.364;6.580;2023-06-10T14:46:21;101284.56;;;27.82;29.08
60307;BME280;46155;52.364;6.580;2023-06-10T14:48:46;101289.94;;;27.96;29.19
60307;BME280;46155;52.364;6.580;2023-06-10T14:51:12;101292.63;;;28.10;29.80
60307;BME280;46155;52.364;6.580;2023-06-10T14:53:37;101275.53;;;27.97;29.41
60307;BME280;46155;52.364;6.580;2023-06-10T14:56:03;101280.94;;;27.91;29.85
60307;BME280;46155;52.364;6.580;2023-06-10T14:58:29;101275.56;;;27.90;30.79
60307;BME280;46155;52.364;6.580;2023-06-10T15:00:54;101290.84;;;27.88;29.80
60307;BME280;46155;52.364;6.580;2023-06-10T15:03:19;101277.38;;;27.85;29.93
60307;BME280;46155;52.364;6.580;2023-06-10T15:05:44;101268.38;;;27.81;29.55
60307;BME280;46155;52.364;6.580;2023-06-10T15:08:10;101276.50;;;27.75;30.08
60307;BME280;46155;52.364;6.580;2023-06-10T15:10:36;101278.28;;;27.82;29.88
60307;BME280;46155;52.364;6.580;2023-06-10T15:13:01;101271.13;;;27.76;30.16
60307;BME280;46155;52.364;6.580;2023-06-10T15:15:27;101269.28;;;27.85;31.03
60307;BME280;46155;52.364;6.580;2023-06-10T15:17:53;101264.75;;;28.02;30.91
60307;BME280;46155;52.364;6.580;2023-06-10T15:20:18;101268.34;;;27.98;30.24
60307;BME280;46155;52.364;6.580;2023-06-10T15:22:44;101264.78;;;27.88;29.65
60307;BME280;46155;52.364;6.580;2023-06-10T15:25:09;101263.84;;;27.92;30.26
60307;BME280;46155;52.364;6.580;2023-06-10T15:27:34;101253.97;;;27.96;30.36
60307;BME280;46155;52.364;6.580;2023-06-10T15:29:59;101253.94;;;28.05;31.25
60307;BME280;46155;52.364;6.580;2023-06-10T15:32:25;101253.00;;;28.14;31.13
60307;BME280;46155;52.364;6.580;2023-06-10T15:34:50;101261.13;;;28.06;29.85
60307;BME280;46155;52.364;6.580;2023-06-10T15:37:18;101254.88;;;27.93;30.88
60307;BME280;46155;52.364;6.580;2023-06-10T15:39:43;101256.69;;;27.93;30.26
60307;BME280;46155;52.364;6.580;2023-06-10T15:42:08;101252.16;;;27.95;30.72
60307;BME280;46155;52.364;6.580;2023-06-10T15:44:33;101251.28;;;27.99;30.03
60307;BME280;46155;52.364;6.580;2023-06-10T15:46:59;101253.97;;;27.99;31.12
60307;BME280;46155;52.364;6.580;2023-06-10T15:49:24;101244.91;;;28.15;31.07
60307;BME280;46155;52.364;6.580;2023-06-10T15:51:50;101239.47;;;28.22;30.57
60307;BME280;46155;52.364;6.580;2023-06-10T15:54:15;101243.06;;;28.21;31.22
60307;BME280;46155;52.364;6.580;2023-06-10T15:56:40;101234.94;;;28.25;31.19
60307;BME280;46155;52.364;6.580;2023-06-10T15:59:06;101243.00;;;28.36;31.21
60307;BME280;46155;52.364;6.580;2023-06-10T16:01:31;101245.66;;;28.41;30.96